Time;durP1;ratioP1;P1;durP2;ratioP2;P2;SDS_P1;SDS_P2;PMS_P1;PMS_P2;Temp;Humidity;BMP_temperature;BMP_pressure;BME280_temperature;BME280_humidity;BME280_pressure;Samples;Min_cycle;Max_cycle;Signal;HPM_P1;HPM_P2
2022/05/10 00:01:23;;;;;;;2.50;1.43;;;13.20;99.90;;;;;;5051445;28;20558;-45
2022/05/10 00:03:51;;;;;;;2.57;1.67;;;13.20;99.90;;;;;;5050460;28;20441;-49
2022/05/10 00:06:18;;;;;;;2.20;1.73;;;12.90;99.90;;;;;;5051136;28;20493;-44
2022/05/10 00:08:46;;;;;;;1.87;1.60;;;12.70;99.90;;;;;;5051246;28;20441;-45
2022/05/10 00:11:13;;;;;;;2.10;1.90;;;12.40;99.90;;;;;;5051223;28;20473;-48
2022/05/10 00:13:40;;;;;;;2.33;1.60;;;12.60;99.90;;;;;;5050823;28;20476;-46
2022/05/10 00:16:10;;;;;;;4.20;1.87;;;12.80;99.90;;;;;;5112047;22;20495;-47
2022/05/10 00:18:38;;;;;;;2.07;1.67;;;12.80;99.90;;;;;;5051475;28;20476;-46
2022/05/10 00:21:05;;;;;;;2.97;1.93;;;12.80;99.90;;;;;;5051195;28;20509;-46
2022/05/10 00:23:32;;;;;;;2.53;1.80;;;13.00;99.90;;;;;;5050999;28;20469;-47
2022/05/10 00:25:59;;;;;;;2.27;1.80;;;13.10;99.90;;;;;;5050997;28;20519;-46
2022/05/10 00:28:25;;;;;;;2.17;1.50;;;13.20;99.90;;;;;;5051128;28;20957;-46
2022/05/10 00:30:52;;;;;;;2.07;1.60;;;13.30;99.90;;;;;;5051265;28;20480;-47
2022/05/10 00:33:26;;;;;;;2.60;1.83;;;13.30;99.90;;;;;;5051334;28;20481;-46
2022/05/10 00:35:53;;;;;;;2.73;1.50;;;13.30;99.90;;;;;;5051125;28;20476;-47
2022/05/10 00:38:22;;;;;;;5.43;2.07;;;13.40;99.90;;;;;;5050758;28;20465;-46
2022/05/10 00:40:49;;;;;;;2.13;1.40;;;13.20;99.90;;;;;;5050939;28;20571;-47
2022/05/10 00:43:26;;;;;;;2.60;1.73;;;13.20;99.90;;;;;;5050905;28;20477;-46
2022/05/10 00:45:57;;;;;;;2.97;1.97;;;13.30;99.90;;;;;;5051052;28;20461;-46
2022/05/10 00:48:33;;;;;;;2.97;2.00;;;13.30;99.90;;;;;;5050430;28;20858;-46
2022/05/10 00:51:07;;;;;;;2.27;2.03;;;13.30;99.90;;;;;;5050889;28;20498;-46
2022/05/10 00:53:56;;;;;;;3.93;1.83;;;13.20;99.90;;;;;;5050841;28;20441;-46
2022/05/10 00:56:30;;;;;;;4.43;1.90;;;13.20;99.90;;;;;;5050887;28;20461;-46
2022/05/10 00:59:02;;;;;;;2.47;2.27;;;13.30;99.90;;;;;;5050936;28;20440;-46
2022/05/10 01:01:33;;;;;;;5.23;1.97;;;13.30;99.90;;;;;;5050800;28;20531;-46
2022/05/10 01:04:12;;;;;;;1.73;1.47;;;13.10;99.90;;;;;;5050528;28;20477;-47
2022/05/10 01:06:47;;;;;;;1.93;1.53;;;13.00;99.90;;;;;;5050757;28;20457;-47
2022/05/10 01:09:21;;;;;;;2.83;1.37;;;13.10;99.90;;;;;;5050669;28;20520;-47
2022/05/10 01:11:52;;;;;;;3.00;1.70;;;13.00;99.90;;;;;;5050605;28;20492;-46
2022/05/10 01:14:23;;;;;;;2.50;1.67;;;12.80;99.90;;;;;;5051703;28;20841;-46
2022/05/10 01:16:51;;;;;;;1.57;1.47;;;12.60;99.90;;;;;;5054176;28;20508;-46
2022/05/10 01:19:19;;;;;;;6.40;2.20;;;12.70;99.90;;;;;;5054556;28;20857;-46
2022/05/10 01:22:10;;;;;;;2.87;1.93;;;12.80;99.90;;;;;;5054240;28;21080;-46
2022/05/10 01:25:01;;;;;;;2.00;1.80;;;13.00;99.90;;;;;;5053986;28;20441;-46
2022/05/10 01:27:45;;;;;;;2.23;1.97;;;13.00;99.90;;;;;;5054271;28;20515;-46
2022/05/10 01:30:15;;;;;;;2.57;1.70;;;12.90;99.90;;;;;;5054284;28;20437;-47
2022/05/10 01:35:41;;;;;;;2.40;1.97;;;12.80;99.90;;;;;;5054346;28;20452;-46
2022/05/10 01:38:23;;;;;;;2.60;1.90;;;12.50;99.90;;;;;;5054009;28;20437;-47
2022/05/10 01:40:54;;;;;;;2.23;1.73;;;12.50;99.90;;;;;;5053856;28;20477;-47
2022/05/10 01:43:28;;;;;;;5.30;1.90;;;12.40;99.90;;;;;;5053519;28;20564;-47
2022/05/10 01:46:01;;;;;;;3.73;1.83;;;12.30;99.90;;;;;;5053901;28;20508;-47
2022/05/10 01:48:30;;;;;;;2.63;2.00;;;12.50;99.90;;;;;;5053639;28;20445;-46
2022/05/10 01:51:02;;;;;;;2.60;2.40;;;12.50;99.90;;;;;;5053784;28;20938;-46
2022/05/10 01:53:33;;;;;;;3.97;1.97;;;12.60;99.90;;;;;;5053262;28;20476;-46
2022/05/10 01:56:02;;;;;;;1.93;1.43;;;12.60;99.90;;;;;;5053419;28;21001;-46
2022/05/10 01:58:31;;;;;;;3.60;1.90;;;12.60;99.90;;;;;;5053425;28;20473;-46
2022/05/10 02:01:02;;;;;;;3.70;2.03;;;12.60;99.90;;;;;;5053566;28;20477;-46
2022/05/10 02:03:31;;;;;;;2.67;1.80;;;12.70;99.90;;;;;;5053177;28;20512;-46
2022/05/10 02:06:07;;;;;;;2.03;1.50;;;12.60;99.90;;;;;;5053270;28;20457;-46
2022/05/10 02:08:39;;;;;;;1.90;1.73;;;12.60;99.90;;;;;;5053466;28;20868;-47
2022/05/10 02:11:10;;;;;;;1.93;1.63;;;12.60;99.90;;;;;;5053312;28;20469;-46
2022/05/10 02:13:40;;;;;;;4.03;2.07;;;12.70;99.90;;;;;;5053025;28;20499;-46
2022/05/10 02:16:16;;;;;;;2.77;2.30;;;12.70;99.90;;;;;;5052878;28;20505;-46
2022/05/10 02:18:51;;;;;;;2.73;2.20;;;12.70;99.90;;;;;;5053286;28;20449;-47
2022/05/10 02:21:22;;;;;;;4.43;2.00;;;12.70;99.90;;;;;;5052847;28;20922;-46
2022/05/10 02:23:53;;;;;;;1.80;1.70;;;12.70;99.90;;;;;;5053049;28;20495;-46
2022/05/10 02:26:25;;;;;;;3.00;1.90;;;12.70;99.90;;;;;;5052193;28;20500;-46
2022/05/10 02:28:57;;;;;;;2.33;1.83;;;12.70;99.90;;;;;;5052864;28;20475;-48
2022/05/10 02:31:30;;;;;;;2.20;1.73;;;12.70;99.90;;;;;;5053163;28;20475;-46
2022/05/10 02:33:56;;;;;;;2.10;1.80;;;12.60;99.90;;;;;;5052834;28;20926;-46
2022/05/10 02:36:24;;;;;;;2.17;1.70;;;12.60;99.90;;;;;;5052717;28;20461;-46
2022/05/10 02:38:51;;;;;;;2.20;1.63;;;12.50;99.90;;;;;;5052564;28;20510;-47
2022/05/10 02:41:20;;;;;;;2.27;2.07;;;12.30;99.90;;;;;;5052638;28;20495;-46
2022/05/10 02:43:56;;;;;;;2.80;2.27;;;12.20;99.90;;;;;;5052721;28;20852;-47
2022/05/10 02:46:25;;;;;;;2.00;1.70;;;12.30;99.90;;;;;;5052534;28;20457;-46
2022/05/10 02:48:53;;;;;;;1.97;1.60;;;12.30;99.90;;;;;;5052260;28;20437;-46
2022/05/10 02:51:21;;;;;;;2.63;1.80;;;12.30;99.90;;;;;;5052220;28;20879;-46
2022/05/10 02:53:49;;;;;;;2.67;1.80;;;12.30;99.90;;;;;;5052571;28;20464;-47
2022/05/10 02:56:18;;;;;;;9.63;4.60;;;11.90;99.90;;;;;;5052509;28;20526;-46
2022/05/10 02:58:49;;;;;;;2.83;2.60;;;11.50;99.90;;;;;;5052330;28;20966;-46
2022/05/10 03:01:19;;;;;;;3.60;1.90;;;11.10;99.90;;;;;;5052265;28;20441;-47
2022/05/10 03:03:48;;;;;;;4.70;2.10;;;11.30;99.90;;;;;;5051862;28;20576;-46
2022/05/10 03:06:17;;;;;;;2.27;1.63;;;11.60;99.90;;;;;;5052231;28;21024;-46
2022/05/10 03:08:45;;;;;;;9.10;3.07;;;11.80;99.90;;;;;;5052473;28;20454;-47
2022/05/10 03:11:12;;;;;;;2.60;2.00;;;11.80;99.90;;;;;;5052355;28;20791;-46
2022/05/10 03:13:39;;;;;;;2.40;1.90;;;12.00;99.90;;;;;;5051873;28;20437;-45
2022/05/10 03:16:07;;;;;;;2.57;1.63;;;12.10;99.90;;;;;;5051819;28;20477;-47
2022/05/10 03:18:34;;;;;;;2.47;2.27;;;12.10;99.90;;;;;;5052357;28;20433;-46
2022/05/10 03:21:02;;;;;;;2.80;1.93;;;12.20;99.90;;;;;;5052053;28;20476;-47
2022/05/10 03:23:29;;;;;;;3.20;1.90;;;12.20;99.90;;;;;;5052022;28;20564;-47
2022/05/10 03:25:57;;;;;;;2.57;1.73;;;12.20;99.90;;;;;;5051727;28;20504;-46
2022/05/10 03:28:24;;;;;;;2.93;2.00;;;12.20;99.90;;;;;;5052141;28;20506;-47
2022/05/10 03:30:51;;;;;;;4.03;1.87;;;12.20;99.90;;;;;;5051897;28;20445;-48
2022/05/10 03:33:19;;;;;;;2.10;1.80;;;12.20;99.90;;;;;;5051772;28;20446;-46
2022/05/10 03:35:46;;;;;;;2.83;2.27;;;12.20;99.90;;;;;;5051636;28;20469;-47
2022/05/10 03:38:14;;;;;;;3.70;1.63;;;12.20;99.90;;;;;;5050671;28;20495;-46
2022/05/10 03:40:41;;;;;;;4.77;1.97;;;12.20;99.90;;;;;;5051476;28;20881;-46
2022/05/10 03:43:09;;;;;;;2.57;1.80;;;12.00;99.90;;;;;;5051175;28;20538;-47
2022/05/10 03:45:37;;;;;;;2.03;1.83;;;11.80;99.90;;;;;;5052202;28;20473;-48
2022/05/10 03:48:05;;;;;;;4.70;2.00;;;11.60;99.90;;;;;;5051206;28;20441;-47
2022/05/10 03:50:32;;;;;;;2.17;1.87;;;11.70;99.90;;;;;;5051509;28;20445;-46
2022/05/10 03:52:59;;;;;;;2.00;1.70;;;11.70;99.90;;;;;;5051164;28;20977;-49
2022/05/10 03:55:29;;;;;;;2.63;2.10;;;11.80;99.90;;;;;;5051078;28;20477;-46
2022/05/10 03:57:56;;;;;;;2.27;1.87;;;11.90;99.90;;;;;;5051610;28;21014;-47
2022/05/10 04:00:25;;;;;;;2.70;1.93;;;11.90;99.90;;;;;;5051298;28;20565;-47
2022/05/10 04:02:54;;;;;;;2.50;1.50;;;11.90;99.90;;;;;;5051193;28;20523;-46
2022/05/10 04:05:21;;;;;;;2.10;1.90;;;12.00;99.90;;;;;;5051101;28;20824;-46
2022/05/10 04:07:49;;;;;;;1.77;1.60;;;12.00;99.90;;;;;;5051169;28;20441;-46
2022/05/10 04:10:17;;;;;;;2.63;1.90;;;12.00;99.90;;;;;;5051466;28;20449;-46
2022/05/10 04:12:45;;;;;;;2.50;1.87;;;12.10;99.90;;;;;;5050832;28;20441;-46
2022/05/10 04:15:16;;;;;;;2.53;1.90;;;12.10;99.90;;;;;;5051183;28;20543;-48
2022/05/10 04:17:43;;;;;;;2.10;1.80;;;12.10;99.90;;;;;;5051123;28;20966;-47
2022/05/10 04:20:12;;;;;;;2.93;1.90;;;12.00;99.90;;;;;;5051147;28;20789;-46
2022/05/10 04:22:39;;;;;;;3.20;1.90;;;11.90;99.90;;;;;;5050733;28;20511;-48
2022/05/10 04:25:07;;;;;;;2.47;2.10;;;12.00;99.90;;;;;;5051183;28;20491;-46
2022/05/10 04:27:35;;;;;;;2.27;2.00;;;12.00;99.90;;;;;;5051330;28;20510;-45
2022/05/10 04:30:05;;;;;;;3.47;2.30;;;12.00;99.90;;;;;;5051084;28;20503;-46
2022/05/10 04:32:34;;;;;;;3.40;2.20;;;12.00;99.90;;;;;;5050915;28;20441;-46
2022/05/10 04:35:01;;;;;;;4.47;2.50;;;12.00;99.90;;;;;;5051094;28;20441;-45
2022/05/10 04:37:28;;;;;;;4.00;2.70;;;12.00;99.90;;;;;;5051133;28;20461;-46
2022/05/10 04:42:39;;;;;;;4.13;2.43;;;11.90;99.90;;;;;;5050890;28;20484;-46
2022/05/10 04:45:08;;;;;;;2.50;2.30;;;11.90;99.90;;;;;;5050925;28;20477;-46
2022/05/10 04:47:35;;;;;;;3.50;2.97;;;11.90;99.90;;;;;;5050738;28;20493;-46
2022/05/10 04:50:02;;;;;;;3.13;2.80;;;11.90;99.90;;;;;;5053356;28;20437;-46
2022/05/10 04:52:29;;;;;;;15.23;4.50;;;11.80;99.90;;;;;;5054450;28;20479;-46
2022/05/10 04:54:56;;;;;;;3.57;2.30;;;11.80;99.90;;;;;;5054556;28;20445;-47
2022/05/10 04:57:23;;;;;;;4.70;3.50;;;11.80;99.90;;;;;;5054838;28;21044;-48
2022/05/10 04:59:50;;;;;;;3.57;2.10;;;11.80;99.90;;;;;;5055069;28;20472;-46
2022/05/10 05:02:18;;;;;;;8.33;6.27;;;11.60;99.90;;;;;;5054308;28;20437;-46
2022/05/10 05:04:45;;;;;;;4.00;2.77;;;11.60;99.90;;;;;;5054784;28;20477;-46
2022/05/10 05:07:12;;;;;;;2.33;2.13;;;11.50;99.90;;;;;;5054759;28;20516;-47
2022/05/10 05:09:38;;;;;;;4.53;2.50;;;11.50;99.90;;;;;;5054361;28;20483;-45
2022/05/10 05:12:06;;;;;;;5.17;3.63;;;11.50;99.90;;;;;;5054348;28;20479;-46
2022/05/10 05:14:33;;;;;;;25.17;15.07;;;11.40;99.90;;;;;;5054292;28;20472;-46
2022/05/10 05:17:00;;;;;;;5.57;4.63;;;11.20;99.90;;;;;;5054095;28;20469;-46
2022/05/10 05:19:28;;;;;;;7.87;6.27;;;11.30;99.90;;;;;;5054345;28;20847;-46
2022/05/10 05:21:55;;;;;;;3.10;2.60;;;11.40;99.90;;;;;;5054386;28;20878;-46
2022/05/10 05:24:22;;;;;;;4.40;3.80;;;11.50;99.90;;;;;;5053853;28;20520;-48
2022/05/10 05:26:49;;;;;;;3.83;3.43;;;11.60;99.90;;;;;;5054428;28;20497;-47
2022/05/10 05:29:15;;;;;;;3.00;2.60;;;11.60;99.90;;;;;;5054407;28;20957;-46
2022/05/10 05:31:43;;;;;;;4.00;3.40;;;11.40;99.90;;;;;;5054034;28;20477;-46
2022/05/10 05:34:09;;;;;;;3.73;2.77;;;11.40;99.90;;;;;;5054063;28;20498;-46
2022/05/10 05:36:38;;;;;;;2.93;2.47;;;11.50;99.90;;;;;;5054062;28;20466;-46
2022/05/10 05:39:05;;;;;;;4.00;3.33;;;11.50;99.90;;;;;;5053872;28;20539;-47
2022/05/10 05:41:32;;;;;;;7.40;5.87;;;11.70;99.90;;;;;;5053914;28;20472;-47
2022/05/10 05:43:59;;;;;;;6.47;4.50;;;11.60;99.90;;;;;;5054085;28;20508;-46
2022/05/10 05:46:26;;;;;;;12.07;9.33;;;11.70;99.90;;;;;;5053892;28;20493;-46
2022/05/10 05:48:53;;;;;;;6.20;5.50;;;11.70;99.90;;;;;;5053460;28;20451;-46
2022/05/10 05:51:19;;;;;;;5.00;3.70;;;11.80;99.90;;;;;;5053525;28;20465;-46
2022/05/10 05:53:48;;;;;;;5.37;2.77;;;11.80;99.90;;;;;;5053554;28;20475;-47
2022/05/10 05:56:15;;;;;;;3.47;2.90;;;11.60;99.90;;;;;;5053539;28;20497;-47
2022/05/10 05:58:42;;;;;;;3.70;2.97;;;11.40;99.90;;;;;;5053435;28;20456;-46
2022/05/10 06:01:14;;;;;;;5.30;2.80;;;11.40;99.90;;;;;;5052037;28;20907;-47
2022/05/10 06:03:42;;;;;;;5.13;2.97;;;11.60;99.90;;;;;;5052595;28;20473;-47
2022/05/10 06:06:09;;;;;;;4.67;2.83;;;11.80;99.90;;;;;;5053529;28;20462;-46
2022/05/10 06:08:36;;;;;;;2.73;2.53;;;11.80;99.90;;;;;;5053243;28;20481;-46
2022/05/10 06:11:04;;;;;;;5.03;3.07;;;11.80;99.90;;;;;;5053316;28;20926;-45
2022/05/10 06:13:31;;;;;;;2.80;2.57;;;11.90;99.90;;;;;;5053003;28;21029;-46
2022/05/10 06:15:59;;;;;;;4.67;3.40;;;12.10;99.90;;;;;;5054443;28;20469;-45
2022/05/10 06:18:26;;;;;;;3.10;2.27;;;12.30;99.90;;;;;;5053088;28;20469;-46
2022/05/10 06:20:54;;;;;;;7.00;2.33;;;12.40;99.90;;;;;;5053191;28;20825;-45
2022/05/10 06:23:21;;;;;;;3.00;1.97;;;12.50;99.90;;;;;;5052625;28;20523;-46
2022/05/10 06:39:31;;;;;;;4.23;3.43;;;12.70;99.90;;;;;;5108696;27;21102;-46
2022/05/10 06:41:58;;;;;;;3.20;2.63;;;13.10;99.90;;;;;;5109128;28;20447;-46
2022/05/10 06:44:26;;;;;;;3.90;3.30;;;13.20;99.90;;;;;;5108983;28;20481;-46
2022/05/10 06:46:53;;;;;;;4.17;3.20;;;13.40;99.90;;;;;;5108979;28;20451;-45
2022/05/10 06:49:20;;;;;;;6.77;5.10;;;13.50;99.90;;;;;;5108512;28;20824;-45
2022/05/10 06:51:48;;;;;;;7.60;5.67;;;13.60;99.90;;;;;;5110024;28;20466;-44
2022/05/10 06:54:14;;;;;;;4.67;3.70;;;13.70;99.90;;;;;;5108734;28;20439;-44
2022/05/10 06:56:43;;;;;;;8.57;3.40;;;13.70;99.90;;;;;;5108728;28;20944;-44
2022/05/10 06:59:10;;;;;;;5.13;3.40;;;13.80;99.90;;;;;;5108211;28;20508;-44
2022/05/10 07:01:37;;;;;;;3.37;2.93;;;13.80;99.90;;;;;;5108630;28;20438;-44
2022/05/10 07:04:04;;;;;;;4.47;3.23;;;13.80;99.90;;;;;;5108456;28;20447;-44
2022/05/10 07:06:31;;;;;;;4.83;3.30;;;13.80;99.90;;;;;;5108803;28;20474;-45
2022/05/10 07:08:58;;;;;;;3.20;2.30;;;13.80;99.90;;;;;;5108183;28;20478;-44
2022/05/10 07:11:25;;;;;;;4.80;2.50;;;13.90;99.90;;;;;;5108700;28;20439;-45
2022/05/10 07:13:53;;;;;;;3.60;2.50;;;14.00;99.90;;;;;;5108153;28;20863;-44
2022/05/10 07:16:20;;;;;;;2.60;2.03;;;14.00;99.90;;;;;;5108232;28;20754;-44
2022/05/10 07:18:47;;;;;;;3.17;2.87;;;14.00;99.90;;;;;;5107815;28;20871;-44
2022/05/10 07:21:14;;;;;;;3.47;3.17;;;14.20;99.90;;;;;;5108473;28;20431;-44
2022/05/10 07:23:40;;;;;;;5.27;4.60;;;14.30;99.90;;;;;;5108124;28;20892;-44
2022/05/10 07:26:07;;;;;;;3.60;3.30;;;14.30;99.90;;;;;;5107814;28;20993;-44
2022/05/10 07:28:34;;;;;;;2.33;2.13;;;14.20;99.90;;;;;;5107269;28;20471;-45
2022/05/10 07:31:03;;;;;;;6.60;3.43;;;14.30;99.90;;;;;;5107954;28;20492;-45
2022/05/10 07:33:30;;;;;;;5.73;3.00;;;14.30;99.90;;;;;;5107798;28;20442;-46
2022/05/10 07:38:42;;;;;;;41.50;6.63;;;14.60;99.90;;;;;;5103819;28;20568;-45
2022/05/10 07:41:11;;;;;;;5.93;2.40;;;14.70;99.90;;;;;;5094160;28;20475;-45
2022/05/10 07:43:39;;;;;;;22.10;4.60;;;15.10;99.90;;;;;;5094887;28;20467;-45
2022/05/10 07:46:08;;;;;;;4.10;2.20;;;15.50;99.90;;;;;;5094330;28;20443;-45
2022/05/10 07:48:35;;;;;;;20.10;4.87;;;15.80;99.90;;;;;;5093844;28;20562;-46
2022/05/10 07:51:03;;;;;;;7.73;3.03;;;16.10;99.90;;;;;;5094260;28;20497;-46
2022/05/10 07:53:31;;;;;;;6.93;2.90;;;16.30;99.90;;;;;;5093902;28;20442;-45
2022/05/10 07:55:59;;;;;;;3.80;2.53;;;16.60;99.90;;;;;;5093965;28;20447;-46
2022/05/10 07:58:26;;;;;;;21.93;4.50;;;16.90;99.90;;;;;;5093636;28;20443;-46
2022/05/10 08:00:52;;;;;;;34.10;5.53;;;17.00;99.90;;;;;;5093836;28;20475;-45
2022/05/10 08:03:23;;;;;;;15.57;3.77;;;17.40;99.90;;;;;;5094099;28;20474;-46
2022/05/10 08:05:51;;;;;;;4.90;2.60;;;17.40;99.90;;;;;;5093622;28;20805;-45
2022/05/10 08:08:18;;;;;;;15.00;3.87;;;17.60;99.90;;;;;;5093404;28;20471;-46
2022/05/10 08:10:47;;;;;;;6.67;2.20;;;17.60;99.90;;;;;;5093901;28;20446;-46
2022/05/10 08:13:16;;;;;;;17.73;4.03;;;17.60;99.90;;;;;;5093887;28;20443;-46
2022/05/10 08:15:44;;;;;;;6.50;3.10;;;17.70;99.90;;;;;;5093736;28;20435;-45
2022/05/10 08:18:12;;;;;;;54.27;7.50;;;17.80;99.90;;;;;;5093502;28;20710;-46
2022/05/10 08:20:42;;;;;;;10.53;3.80;;;17.80;99.90;;;;;;5093441;28;20895;-46
2022/05/10 08:23:11;;;;;;;13.23;2.77;;;17.60;99.90;;;;;;5093818;28;20497;-45
2022/05/10 08:25:38;;;;;;;10.50;3.40;;;17.70;99.90;;;;;;5093204;28;20951;-45
2022/05/10 08:28:06;;;;;;;8.50;2.37;;;17.70;99.90;;;;;;5093326;28;20503;-45
2022/05/10 08:30:33;;;;;;;7.97;2.37;;;17.70;99.90;;;;;;5092795;28;20463;-46
2022/05/10 08:33:00;;;;;;;4.50;3.07;;;17.80;99.90;;;;;;5093025;28;20858;-46
2022/05/10 08:35:27;;;;;;;3.20;2.27;;;17.90;99.90;;;;;;5093530;28;20482;-45
2022/05/10 08:37:55;;;;;;;3.23;3.00;;;18.00;99.90;;;;;;5093039;28;20486;-45
2022/05/10 08:40:28;;;;;;;2.40;2.20;;;18.10;99.90;;;;;;5092785;28;20490;-45
2022/05/10 08:42:58;;;;;;;2.80;2.10;;;18.10;99.90;;;;;;5093182;28;20475;-45
2022/05/10 08:45:26;;;;;;;2.57;2.10;;;18.20;99.90;;;;;;5092874;28;20440;-45
2022/05/10 08:47:54;;;;;;;3.50;1.87;;;18.20;99.90;;;;;;5092892;28;20518;-45
2022/05/10 08:50:22;;;;;;;2.70;1.60;;;18.10;99.90;;;;;;5092168;28;20459;-46
2022/05/10 08:52:51;;;;;;;10.43;3.80;;;18.10;99.90;;;;;;5092830;28;20532;-45
2022/05/10 08:55:24;;;;;;;5.40;2.43;;;18.20;99.90;;;;;;5092646;28;20440;-46
2022/05/10 08:57:54;;;;;;;5.27;1.87;;;18.40;99.90;;;;;;5092792;28;20467;-46
2022/05/10 09:00:29;;;;;;;13.40;3.40;;;18.40;99.90;;;;;;5092790;28;20463;-45
2022/05/10 09:02:58;;;;;;;2.37;2.13;;;18.60;99.90;;;;;;5092631;28;20883;-45
2022/05/10 09:05:32;;;;;;;2.90;2.10;;;18.60;99.90;;;;;;5092579;28;20921;-46
2022/05/10 09:08:06;;;;;;;3.00;2.70;;;18.40;99.90;;;;;;5092592;28;20497;-45
2022/05/10 09:10:40;;;;;;;14.83;4.93;;;18.40;99.90;;;;;;5089561;28;20498;-45
2022/05/10 09:13:11;;;;;;;33.63;8.10;;;18.30;99.90;;;;;;5091965;28;20975;-45
2022/05/10 09:15:40;;;;;;;9.60;4.60;;;18.50;99.90;;;;;;5092381;28;20512;-46
2022/05/10 09:18:13;;;;;;;10.87;3.40;;;18.40;99.90;;;;;;5092261;28;20435;-45
2022/05/10 09:20:59;;;;;;;22.10;6.87;;;18.50;99.90;;;;;;5091576;28;21000;-46
2022/05/10 09:23:36;;;;;;;20.63;5.43;;;18.70;99.90;;;;;;5092117;28;20933;-45
2022/05/10 09:26:05;;;;;;;44.20;10.90;;;19.00;99.90;;;;;;5092043;28;20439;-46
2022/05/10 09:28:38;;;;;;;38.87;6.90;;;19.10;99.90;;;;;;5091252;28;21000;-45
2022/05/10 09:36:57;;;;;;;3.47;2.37;;;19.20;99.90;;;;;;5092072;28;20415;-45
2022/05/10 09:39:34;;;;;;;10.93;3.47;;;19.10;99.90;;;;;;5091498;28;20471;-45
2022/05/10 09:42:03;;;;;;;8.67;4.27;;;19.20;99.90;;;;;;5091750;28;20443;-45
2022/05/10 09:44:30;;;;;;;7.33;2.50;;;19.20;99.90;;;;;;5091866;28;20467;-45
2022/05/10 09:47:12;;;;;;;2.87;2.30;;;19.40;99.90;;;;;;5091828;28;20443;-46
2022/05/10 09:49:41;;;;;;;5.53;2.47;;;19.40;99.90;;;;;;5091395;28;20999;-46
2022/05/10 09:52:19;;;;;;;4.97;2.50;;;19.60;99.90;;;;;;5091812;28;20435;-45
2022/05/10 09:54:48;;;;;;;5.30;2.30;;;19.60;99.90;;;;;;5091611;28;20475;-45
2022/05/10 09:57:30;;;;;;;3.50;2.40;;;19.60;99.90;;;;;;5091905;28;20431;-45
2022/05/10 09:59:57;;;;;;;3.20;2.30;;;19.60;99.90;;;;;;5091056;28;20495;-45
2022/05/10 10:02:29;;;;;;;7.57;2.97;;;19.60;99.90;;;;;;5091464;28;20435;-46
2022/05/10 10:04:57;;;;;;;3.30;2.17;;;19.70;99.90;;;;;;5091270;28;20468;-45
2022/05/10 10:07:26;;;;;;;5.77;2.53;;;19.60;99.90;;;;;;5090727;28;20479;-46
2022/05/10 10:09:55;;;;;;;4.93;3.30;;;19.60;99.90;;;;;;5090559;28;20507;-45
2022/05/10 10:12:34;;;;;;;3.50;2.20;;;19.60;99.90;;;;;;5090959;28;20472;-45
2022/05/10 10:15:03;;;;;;;4.07;2.90;;;19.60;99.90;;;;;;5091211;28;21124;-45
2022/05/10 10:17:34;;;;;;;3.90;2.40;;;19.70;99.90;;;;;;5091166;28;20483;-45
2022/05/10 10:20:08;;;;;;;10.03;2.57;;;19.70;99.90;;;;;;5091447;28;20512;-46
2022/05/10 10:22:41;;;;;;;2.43;2.20;;;19.70;99.90;;;;;;5091067;28;20471;-45
2022/05/10 10:25:16;;;;;;;3.33;2.30;;;19.80;99.90;;;;;;5091613;28;20944;-45
2022/05/10 10:27:51;;;;;;;2.67;2.10;;;19.80;99.90;;;;;;5091300;28;20439;-45
2022/05/10 10:30:23;;;;;;;1.90;1.70;;;19.80;99.90;;;;;;5090799;28;20459;-45
2022/05/10 10:32:55;;;;;;;3.67;2.70;;;19.80;99.90;;;;;;5091293;28;20440;-46
2022/05/10 10:35:33;;;;;;;3.10;2.70;;;19.70;99.90;;;;;;5091582;28;20431;-45
2022/05/10 10:38:08;;;;;;;6.47;2.87;;;19.80;99.90;;;;;;5090818;28;20446;-45
2022/05/10 10:40:40;;;;;;;5.10;2.20;;;20.00;99.90;;;;;;5091339;28;20459;-45
2022/05/10 10:43:17;;;;;;;4.50;2.47;;;20.10;99.90;;;;;;5091192;28;20436;-45
2022/05/10 10:45:46;;;;;;;3.70;2.33;;;20.20;99.90;;;;;;5090061;28;20435;-45
2022/05/10 10:48:28;;;;;;;2.50;2.10;;;20.30;99.90;;;;;;5089533;28;20471;-45
2022/05/10 10:50:56;;;;;;;4.13;3.17;;;20.30;99.90;;;;;;5089590;28;20482;-45
2022/05/10 10:53:25;;;;;;;7.10;3.40;;;20.50;99.90;;;;;;5089971;28;20428;-45
2022/05/10 10:56:09;;;;;;;5.67;3.00;;;20.50;99.90;;;;;;5089495;28;20467;-46
2022/05/10 10:58:47;;;;;;;3.13;2.70;;;20.60;99.90;;;;;;5089543;28;20458;-45
2022/05/10 11:01:27;;;;;;;4.47;2.43;;;20.80;99.90;;;;;;5091213;28;20431;-49
2022/05/10 11:04:01;;;;;;;6.03;2.67;;;20.90;99.90;;;;;;5091705;28;20474;-46
2022/05/10 11:06:31;;;;;;;3.20;2.20;;;21.10;99.90;;;;;;5091016;28;20952;-45
2022/05/10 11:09:18;;;;;;;2.53;1.93;;;21.10;99.80;;;;;;5090703;28;20519;-46
2022/05/10 11:11:59;;;;;;;4.50;1.97;;;21.10;97.60;;;;;;5090765;28;20963;-45
2022/05/10 11:14:41;;;;;;;2.40;2.00;;;21.20;99.90;;;;;;5092394;28;20777;-46
2022/05/10 11:17:15;;;;;;;3.30;1.43;;;21.40;96.70;;;;;;5094753;28;20482;-46
2022/05/10 11:20:06;;;;;;;1.90;1.70;;;21.50;94.40;;;;;;5094238;28;20455;-46
2022/05/10 11:22:38;;;;;;;3.80;3.07;;;21.40;86.50;;;;;;5094262;28;20874;-46
2022/05/10 11:25:28;;;;;;;3.27;1.40;;;21.40;91.70;;;;;;5094718;28;20857;-45
2022/05/10 11:28:16;;;;;;;3.20;1.60;;;21.40;85.90;;;;;;5094324;28;20462;-46
2022/05/10 11:30:51;;;;;;;1.53;1.40;;;21.40;88.50;;;;;;5094500;28;20944;-45
2022/05/10 11:33:30;;;;;;;2.67;1.83;;;21.30;86.60;;;;;;5094690;28;20439;-46
2022/05/10 11:36:22;;;;;;;5.50;1.90;;;21.40;90.00;;;;;;5094476;28;20443;-45
2022/05/10 11:39:16;;;;;;;2.40;1.83;;;21.50;91.80;;;;;;5093186;28;20990;-46
2022/05/10 11:41:48;;;;;;;5.23;2.60;;;21.60;91.10;;;;;;5092705;28;20471;-45
2022/05/10 11:45:00;;;;;;;10.83;2.90;;;21.70;88.20;;;;;;5092410;28;20474;-46
2022/05/10 11:47:59;;;;;;;27.37;5.80;;;21.90;87.50;;;;;;5029245;28;20442;-46
2022/05/10 11:51:38;;;;;;;12.90;4.87;;;22.00;91.70;;;;;;5092001;28;21004;-46
2022/05/10 11:54:36;;;;;;;4.40;2.00;;;22.00;90.50;;;;;;5091939;28;20446;-46
2022/05/10 11:57:05;;;;;;;11.70;4.10;;;22.10;88.80;;;;;;5093921;28;20454;-46
2022/05/10 11:59:35;;;;;;;26.60;4.77;;;22.10;89.60;;;;;;5093468;28;20897;-46
2022/05/10 12:02:04;;;;;;;7.40;2.80;;;22.10;85.20;;;;;;5094041;28;20541;-45
2022/05/10 12:04:38;;;;;;;19.60;4.97;;;22.10;91.60;;;;;;5093616;28;20469;-46
2022/05/10 12:07:34;;;;;;;12.40;3.00;;;22.10;86.70;;;;;;5093644;28;20468;-44
2022/05/10 12:10:06;;;;;;;14.37;4.70;;;22.10;83.20;;;;;;5093212;28;20511;-42
2022/05/10 12:13:04;;;;;;;10.57;2.20;;;22.20;85.90;;;;;;5093188;28;20439;-43
2022/05/10 12:21:22;;;;;;;24.10;4.77;;;22.30;87.80;;;;;;5093685;28;20544;-43
2022/05/10 12:24:12;;;;;;;25.53;6.47;;;22.30;85.20;;;;;;5094102;28;20940;-43
2022/05/10 12:26:45;;;;;;;74.20;15.27;;;22.40;84.90;;;;;;5093300;28;20435;-43
2022/05/10 12:29:49;;;;;;;29.50;7.00;;;22.40;85.20;;;;;;5092345;28;20479;-43
2022/05/10 12:32:41;;;;;;;72.63;15.23;;;22.40;82.10;;;;;;5093164;28;20850;-43
2022/05/10 12:35:10;;;;;;;45.77;10.20;;;22.40;86.70;;;;;;5093466;28;20416;-44
2022/05/10 12:37:59;;;;;;;174.33;35.23;;;22.40;89.30;;;;;;5091603;28;20455;-43
2022/05/10 12:40:51;;;;;;;25.17;6.73;;;22.40;79.70;;;;;;5093081;28;20468;-43
2022/05/10 12:43:50;;;;;;;231.40;41.73;;;22.40;83.00;;;;;;5091636;28;20527;-44
2022/05/10 12:46:27;;;;;;;190.80;35.30;;;22.40;81.60;;;;;;5087820;28;20443;-44
2022/05/10 12:49:09;;;;;;;241.40;42.90;;;22.40;85.60;;;;;;5092392;28;20999;-42
2022/05/10 12:51:44;;;;;;;247.70;45.63;;;22.50;82.10;;;;;;5106431;22;20512;-48
2022/05/10 12:54:17;;;;;;;70.60;15.57;;;22.50;83.60;;;;;;5072329;28;20997;-46
2022/05/10 12:57:02;;;;;;;228.00;39.37;;;22.40;74.60;;;;;;5072286;28;20479;-49
2022/05/10 12:59:36;;;;;;;117.90;20.90;;;22.40;79.30;;;;;;5072043;28;20440;-46
2022/05/10 13:02:05;;;;;;;29.27;8.20;;;22.40;77.70;;;;;;5072131;28;20758;-49
2022/05/10 13:04:40;;;;;;;106.17;19.57;;;22.50;84.70;;;;;;5072426;28;20527;-47
2022/05/10 13:07:13;;;;;;;26.57;5.93;;;22.50;86.40;;;;;;5072321;28;20443;-46
2022/05/10 13:09:43;;;;;;;98.17;19.53;;;22.50;83.80;;;;;;5071845;28;20894;-46
2022/05/10 13:12:13;;;;;;;36.20;10.07;;;22.50;82.60;;;;;;5072013;28;20514;-47
2022/05/10 13:14:43;;;;;;;109.00;23.37;;;22.60;76.80;;;;;;5072320;28;20493;-50
2022/05/10 13:17:13;;;;;;;119.67;24.87;;;22.60;84.10;;;;;;5072373;28;20444;-47
2022/05/10 13:19:42;;;;;;;118.10;26.33;;;22.60;79.10;;;;;;5071628;28;20509;-46
2022/05/10 13:22:14;;;;;;;81.13;18.60;;;22.70;79.10;;;;;;5071877;28;20830;-47
2022/05/10 13:24:46;;;;;;;67.03;18.00;;;22.70;77.40;;;;;;5071783;28;20535;-48
2022/05/10 13:27:23;;;;;;;52.23;13.10;;;22.70;78.60;;;;;;5071931;28;20484;-48
2022/05/10 13:29:50;;;;;;;44.70;12.53;;;22.60;78.40;;;;;;5071138;28;20478;-46
2022/05/10 13:32:30;;;;;;;12.07;4.00;;;22.60;75.40;;;;;;5071776;28;20514;-49
2022/05/10 13:35:05;;;;;;;9.20;3.80;;;22.60;75.60;;;;;;5071626;28;20479;-49
2022/05/10 13:37:34;;;;;;;5.57;2.63;;;22.70;77.80;;;;;;5071191;28;20586;-47
2022/05/10 13:40:13;;;;;;;17.07;5.87;;;22.70;76.70;;;;;;5071595;28;20486;-46